Time;durP1;ratioP1;P1;durP2;ratioP2;P2;SDS_P1;SDS_P2;PMS_P1;PMS_P2;Temp;Humidity;BMP_temperature;BMP_pressure;BME280_temperature;BME280_humidity;BME280_pressure;Samples;Min_cycle;Max_cycle;Signal;HPM_P1;HPM_P2
2021/09/30 00:02:21;;;;;;;2.65;0.57;;;;;;;;;;4991982;28;20054;-64
2021/09/30 00:04:47;;;;;;;1.88;0.50;;;;;;;;;;4992036;28;20054;-64
2021/09/30 00:07:14;;;;;;;0.65;0.40;;;;;;;;;;4992159;28;20124;-65
2021/09/30 00:09:44;;;;;;;4.45;0.68;;;;;;;;;;4992180;28;20054;-64
2021/09/30 00:12:21;;;;;;;3.30;0.50;;;;;;;;;;4990837;28;20104;-64
2021/09/30 00:14:55;;;;;;;1.40;0.80;;;;;;;;;;4990853;28;20046;-64
2021/09/30 00:47:04;;;;;;;2.35;0.57;;;;;;;;;;4990820;28;20070;-64
2021/09/30 02:35:03;;;;;;;1.15;0.60;;;;;;;;;;4992925;28;20050;-64
2021/09/30 02:59:33;;;;;;;3.58;0.90;;;;;;;;;;4973022;28;20062;-63
2021/09/30 03:02:00;;;;;;;2.08;0.80;;;;;;;;;;4972226;28;20406;-63
2021/09/30 03:04:27;;;;;;;6.05;0.95;;;;;;;;;;4972689;28;20086;-63
2021/09/30 03:06:55;;;;;;;1.73;0.85;;;;;;;;;;4975493;28;20054;-63
2021/09/30 03:09:22;;;;;;;3.03;0.88;;;;;;;;;;4991806;28;20054;-63
2021/09/30 03:11:51;;;;;;;2.97;1.10;;;;;;;;;;4992961;28;20050;-63
2021/09/30 03:14:19;;;;;;;1.60;0.80;;;;;;;;;;4991843;28;20520;-63
2021/09/30 03:16:48;;;;;;;3.67;0.80;;;;;;;;;;4991237;28;20453;-63
2021/09/30 03:22:19;;;;;;;1.25;0.73;;;;;;;;;;4980472;28;20113;-64
2021/09/30 03:24:48;;;;;;;2.15;1.00;;;;;;;;;;4991659;28;20050;-63
2021/09/30 03:27:15;;;;;;;1.23;1.00;;;;;;;;;;4991505;28;20101;-63
2021/09/30 03:29:42;;;;;;;1.55;1.00;;;;;;;;;;4991452;28;20054;-63
2021/09/30 03:32:09;;;;;;;3.08;1.10;;;;;;;;;;4992220;28;20104;-63
2021/09/30 03:34:35;;;;;;;3.95;1.48;;;;;;;;;;4992614;28;20050;-64
2021/09/30 03:37:03;;;;;;;5.05;1.38;;;;;;;;;;4992269;28;20092;-63
2021/09/30 03:39:30;;;;;;;3.58;1.35;;;;;;;;;;4992707;28;20109;-63
2021/09/30 03:41:57;;;;;;;3.53;1.40;;;;;;;;;;4992169;28;20050;-64
2021/09/30 03:44:23;;;;;;;2.72;1.75;;;;;;;;;;4992268;28;20049;-64
2021/09/30 03:46:53;;;;;;;2.25;1.40;;;;;;;;;;4992104;28;20497;-63
2021/09/30 03:49:29;;;;;;;3.85;1.60;;;;;;;;;;4992364;28;20497;-63
2021/09/30 03:52:14;;;;;;;5.22;1.60;;;;;;;;;;4991180;28;20112;-63
2021/09/30 03:57:51;;;;;;;3.72;1.63;;;;;;;;;;4990863;28;20077;-64
2021/09/30 04:00:18;;;;;;;1.85;1.38;;;;;;;;;;4992303;28;20054;-63
2021/09/30 04:02:44;;;;;;;2.75;1.60;;;;;;;;;;4992013;28;20194;-63
2021/09/30 04:05:11;;;;;;;5.45;1.77;;;;;;;;;;4992126;28;20050;-63
2021/09/30 04:07:38;;;;;;;3.97;1.73;;;;;;;;;;4992345;28;20046;-63
2021/09/30 04:10:05;;;;;;;3.00;1.70;;;;;;;;;;4992205;28;20468;-63
2021/09/30 04:12:32;;;;;;;4.95;1.80;;;;;;;;;;4991938;28;20501;-64
2021/09/30 04:14:58;;;;;;;2.40;1.73;;;;;;;;;;4992064;28;20062;-63
2021/09/30 04:17:25;;;;;;;5.22;2.20;;;;;;;;;;4991865;28;20050;-64
2021/09/30 04:19:52;;;;;;;4.25;1.75;;;;;;;;;;4992406;28;20085;-64
2021/09/30 04:22:18;;;;;;;3.53;2.35;;;;;;;;;;4991984;28;20492;-63
2021/09/30 04:24:47;;;;;;;3.15;1.77;;;;;;;;;;4992134;28;20050;-63
2021/09/30 04:27:14;;;;;;;4.15;1.85;;;;;;;;;;4992089;28;20528;-63
2021/09/30 04:29:41;;;;;;;3.83;1.50;;;;;;;;;;4992176;28;20460;-63
2021/09/30 04:32:07;;;;;;;2.20;1.80;;;;;;;;;;4994982;28;20093;-63
2021/09/30 04:34:34;;;;;;;2.65;1.20;;;;;;;;;;4995780;28;20050;-63
2021/09/30 04:37:01;;;;;;;2.63;1.33;;;;;;;;;;4995342;28;20089;-63
2021/09/30 04:39:27;;;;;;;5.47;1.25;;;;;;;;;;4995832;28;20050;-63
2021/09/30 04:41:54;;;;;;;4.20;1.83;;;;;;;;;;4994891;28;20471;-63
2021/09/30 04:44:22;;;;;;;3.95;1.35;;;;;;;;;;4995554;28;20094;-63
2021/09/30 04:46:49;;;;;;;3.15;1.30;;;;;;;;;;4994069;28;20249;-63
2021/09/30 04:49:16;;;;;;;6.82;1.50;;;;;;;;;;4995447;28;20058;-63
2021/09/30 04:51:42;;;;;;;2.88;1.70;;;;;;;;;;4995265;28;20062;-63
2021/09/30 04:54:09;;;;;;;2.60;1.08;;;;;;;;;;4995447;28;20054;-63
2021/09/30 04:56:36;;;;;;;4.38;1.25;;;;;;;;;;4995293;28;20046;-63
2021/09/30 04:59:03;;;;;;;5.47;1.98;;;;;;;;;;4995434;28;20062;-63
2021/09/30 05:01:29;;;;;;;3.78;2.00;;;;;;;;;;4995116;28;20109;-64
2021/09/30 05:03:56;;;;;;;3.58;1.35;;;;;;;;;;4995212;28;20050;-64
2021/09/30 05:06:23;;;;;;;3.88;1.50;;;;;;;;;;4995191;28;20050;-64
2021/09/30 05:08:50;;;;;;;3.33;1.38;;;;;;;;;;4995205;28;20101;-64
2021/09/30 05:11:17;;;;;;;2.20;1.42;;;;;;;;;;4994868;28;20057;-64
2021/09/30 05:13:44;;;;;;;5.90;1.35;;;;;;;;;;4995089;28;20054;-64
2021/09/30 05:16:12;;;;;;;3.42;1.27;;;;;;;;;;4994932;28;20050;-64
2021/09/30 05:18:48;;;;;;;6.45;1.73;;;;;;;;;;4995029;28;20097;-64
2021/09/30 05:21:15;;;;;;;5.70;1.80;;;;;;;;;;4994783;28;20058;-64
2021/09/30 05:23:41;;;;;;;2.65;1.58;;;;;;;;;;4994656;28;20104;-64
2021/09/30 05:26:08;;;;;;;3.95;1.45;;;;;;;;;;4994641;28;20556;-64
2021/09/30 05:28:35;;;;;;;2.97;2.28;;;;;;;;;;4994932;28;20453;-64
2021/09/30 05:31:02;;;;;;;4.35;1.60;;;;;;;;;;4994397;28;20406;-63
2021/09/30 05:33:29;;;;;;;2.35;1.40;;;;;;;;;;4994567;28;20089;-64
2021/09/30 05:35:55;;;;;;;4.20;1.70;;;;;;;;;;4994659;28;20101;-64
2021/09/30 05:38:22;;;;;;;10.90;1.63;;;;;;;;;;4994503;28;20050;-64
2021/09/30 05:40:49;;;;;;;5.95;1.65;;;;;;;;;;4994338;28;20050;-64
2021/09/30 05:43:26;;;;;;;5.13;2.13;;;;;;;;;;4993723;28;20485;-64
2021/09/30 05:45:56;;;;;;;2.78;1.52;;;;;;;;;;4991680;28;20046;-64
2021/09/30 05:48:33;;;;;;;2.15;1.50;;;;;;;;;;4994029;28;20073;-64
2021/09/30 05:51:07;;;;;;;3.85;1.95;;;;;;;;;;4987896;28;20054;-64
2021/09/30 05:53:36;;;;;;;4.60;1.40;;;;;;;;;;5014656;28;20493;-64
2021/09/30 05:56:03;;;;;;;5.18;1.73;;;;;;;;;;4993830;28;20096;-64
2021/09/30 05:58:30;;;;;;;5.47;1.63;;;;;;;;;;4993857;28;20104;-65
2021/09/30 06:12:19;;;;;;;7.38;2.78;;;;;;;;;;4993346;28;20457;-64
2021/09/30 06:14:40;;;;;;;4.78;1.58;;;;;;;;;;4990780;28;20046;-65
2021/09/30 06:17:06;;;;;;;2.75;1.50;;;;;;;;;;4993285;28;20496;-65
2021/09/30 06:19:33;;;;;;;5.70;1.80;;;;;;;;;;4993520;28;20076;-65
2021/09/30 06:22:04;;;;;;;6.70;1.98;;;;;;;;;;4993555;28;20077;-65
2021/09/30 06:24:31;;;;;;;6.13;2.30;;;;;;;;;;4993481;28;20050;-65
2021/09/30 06:26:58;;;;;;;5.05;1.80;;;;;;;;;;4993333;28;20105;-65
2021/09/30 06:29:24;;;;;;;7.53;2.20;;;;;;;;;;4993573;28;20086;-65
2021/09/30 06:31:51;;;;;;;3.65;1.80;;;;;;;;;;4993514;28;20054;-65
2021/09/30 06:34:18;;;;;;;4.32;1.98;;;;;;;;;;4993329;28;20497;-64
2021/09/30 06:36:44;;;;;;;4.25;1.70;;;;;;;;;;4993426;28;20112;-64
2021/09/30 06:39:11;;;;;;;4.40;1.85;;;;;;;;;;4993436;28;20452;-64
2021/09/30 06:41:37;;;;;;;8.25;2.28;;;;;;;;;;4990625;28;20046;-64
2021/09/30 06:44:17;;;;;;;3.33;2.10;;;;;;;;;;4991438;28;20060;-64
2021/09/30 06:46:43;;;;;;;3.97;1.50;;;;;;;;;;4991201;28;20053;-64
2021/09/30 06:49:10;;;;;;;5.57;1.52;;;;;;;;;;4991216;28;20166;-64
2021/09/30 06:51:37;;;;;;;6.72;1.60;;;;;;;;;;4991252;28;20058;-64
2021/09/30 06:54:04;;;;;;;4.38;1.50;;;;;;;;;;4990775;28;20480;-64
2021/09/30 06:56:31;;;;;;;6.95;1.65;;;;;;;;;;4991281;28;20069;-65
2021/09/30 06:59:07;;;;;;;8.48;1.77;;;;;;;;;;4990716;28;20061;-64
2021/09/30 07:01:35;;;;;;;4.30;1.92;;;;;;;;;;4990829;28;20062;-64
2021/09/30 07:04:08;;;;;;;4.38;1.67;;;;;;;;;;4990732;28;20113;-64
2021/09/30 07:06:35;;;;;;;4.70;1.73;;;;;;;;;;4990700;28;20572;-64
2021/09/30 07:09:03;;;;;;;4.65;1.77;;;;;;;;;;4990784;28;20046;-64
2021/09/30 07:11:29;;;;;;;5.03;2.20;;;;;;;;;;4990889;28;20054;-64
2021/09/30 07:13:56;;;;;;;5.88;2.00;;;;;;;;;;4990722;28;20448;-64
2021/09/30 07:16:23;;;;;;;4.18;1.90;;;;;;;;;;4990721;28;20085;-64
2021/09/30 07:18:50;;;;;;;4.53;1.52;;;;;;;;;;4991303;28;20050;-64
2021/09/30 07:21:17;;;;;;;2.05;1.30;;;;;;;;;;4990132;28;20112;-64
2021/09/30 07:23:44;;;;;;;3.95;1.42;;;;;;;;;;4990735;28;20058;-64
2021/09/30 07:26:11;;;;;;;4.25;1.65;;;;;;;;;;4990666;28;20108;-64
2021/09/30 07:28:38;;;;;;;6.00;1.70;;;;;;;;;;4990505;28;20046;-64
2021/09/30 07:31:06;;;;;;;2.97;1.40;;;;;;;;;;4990361;28;20054;-64
2021/09/30 07:33:33;;;;;;;5.28;1.58;;;;;;;;;;4990278;28;20377;-63
2021/09/30 07:36:00;;;;;;;8.82;1.65;;;;;;;;;;4992593;28;20050;-64
2021/09/30 07:38:28;;;;;;;5.75;1.85;;;;;;;;;;4992403;28;20085;-64
2021/09/30 07:40:54;;;;;;;6.85;1.60;;;;;;;;;;4992585;28;20054;-64
2021/09/30 07:43:22;;;;;;;5.57;1.55;;;;;;;;;;4991678;28;20050;-64
2021/09/30 07:45:48;;;;;;;6.03;1.40;;;;;;;;;;4992378;28;20042;-64
2021/09/30 07:48:15;;;;;;;3.55;1.50;;;;;;;;;;4992642;28;20498;-65
2021/09/30 07:50:42;;;;;;;3.80;1.65;;;;;;;;;;4992476;28;20100;-65
2021/09/30 07:53:10;;;;;;;7.60;1.60;;;;;;;;;;4992190;28;20399;-65
2021/09/30 07:55:37;;;;;;;4.22;1.38;;;;;;;;;;4992247;28;20108;-65
2021/09/30 07:58:06;;;;;;;3.75;1.52;;;;;;;;;;4992557;28;20042;-67
2021/09/30 08:00:33;;;;;;;4.80;1.17;;;;;;;;;;4992267;28;20540;-66
2021/09/30 08:02:59;;;;;;;4.63;1.38;;;;;;;;;;4975550;28;20769;-66
2021/09/30 08:05:26;;;;;;;3.08;1.00;;;;;;;;;;4984733;28;20055;-65
2021/09/30 08:07:53;;;;;;;2.60;0.80;;;;;;;;;;4986448;28;20046;-66
2021/09/30 08:10:20;;;;;;;3.38;0.88;;;;;;;;;;4986690;28;20121;-65
2021/09/30 08:12:46;;;;;;;1.30;0.65;;;;;;;;;;4983199;28;20051;-66
2021/09/30 08:15:13;;;;;;;5.32;1.02;;;;;;;;;;4984043;28;20058;-66
2021/09/30 08:17:40;;;;;;;4.32;1.13;;;;;;;;;;4986818;28;20054;-66
2021/09/30 08:20:07;;;;;;;4.43;0.80;;;;;;;;;;4981484;28;20083;-66
2021/09/30 08:22:33;;;;;;;3.90;0.80;;;;;;;;;;4985387;28;20476;-67
2021/09/30 08:25:00;;;;;;;3.22;1.00;;;;;;;;;;4981494;28;20054;-68
2021/09/30 08:27:27;;;;;;;3.35;0.90;;;;;;;;;;4980878;28;20497;-67
2021/09/30 08:29:55;;;;;;;5.00;0.90;;;;;;;;;;4984843;28;20054;-67
2021/09/30 08:32:22;;;;;;;4.50;0.60;;;;;;;;;;4982026;28;20054;-66
2021/09/30 08:34:49;;;;;;;8.57;1.10;;;;;;;;;;4982380;28;20132;-66
2021/09/30 08:37:16;;;;;;;3.20;0.80;;;;;;;;;;4983973;28;20460;-66
2021/09/30 08:39:42;;;;;;;4.60;1.42;;;;;;;;;;4982932;28;20089;-67
2021/09/30 08:42:09;;;;;;;3.92;1.00;;;;;;;;;;4980775;28;20050;-66
2021/09/30 08:44:35;;;;;;;3.92;0.70;;;;;;;;;;4984020;28;20105;-66
2021/09/30 08:47:04;;;;;;;4.43;0.60;;;;;;;;;;4980482;28;20061;-66
2021/09/30 08:49:32;;;;;;;2.97;0.68;;;;;;;;;;4984299;28;20051;-66
2021/09/30 08:51:59;;;;;;;5.07;0.70;;;;;;;;;;4980886;28;20046;-66
2021/09/30 08:54:26;;;;;;;1.98;0.50;;;;;;;;;;4982762;28;20058;-66
2021/09/30 08:56:52;;;;;;;2.00;0.50;;;;;;;;;;4981033;28;20117;-66
2021/09/30 08:59:24;;;;;;;2.47;0.65;;;;;;;;;;4986671;28;20049;-66
2021/09/30 09:02:10;;;;;;;2.88;0.73;;;;;;;;;;4984897;28;20058;-66
2021/09/30 09:04:57;;;;;;;2.75;0.90;;;;;;;;;;4985071;28;20532;-65
2021/09/30 09:07:29;;;;;;;1.65;0.65;;;;;;;;;;4989672;28;20050;-66
2021/09/30 09:09:59;;;;;;;3.78;0.52;;;;;;;;;;4982558;28;20516;-66
2021/09/30 09:12:26;;;;;;;7.15;0.80;;;;;;;;;;4984210;28;20055;-65
2021/09/30 09:14:53;;;;;;;4.80;0.80;;;;;;;;;;4984072;28;20410;-66
2021/09/30 09:17:21;;;;;;;3.08;1.00;;;;;;;;;;4984850;28;20081;-66
2021/09/30 09:19:51;;;;;;;1.13;0.60;;;;;;;;;;4984525;28;20071;-66
2021/09/30 09:22:19;;;;;;;1.65;0.70;;;;;;;;;;4982243;28;20063;-66
2021/09/30 09:24:55;;;;;;;0.60;0.45;;;;;;;;;;4982979;28;20108;-66
2021/09/30 09:27:22;;;;;;;5.90;0.82;;;;;;;;;;4982068;28;20054;-66
2021/09/30 09:29:49;;;;;;;3.47;0.75;;;;;;;;;;4984167;28;20125;-66
2021/09/30 09:32:16;;;;;;;1.02;0.50;;;;;;;;;;4984044;28;20470;-66
2021/09/30 09:34:42;;;;;;;3.00;0.80;;;;;;;;;;4984443;28;20054;-66
2021/09/30 09:37:37;;;;;;;3.55;0.77;;;;;;;;;;4981089;28;20077;-66
2021/09/30 09:40:15;;;;;;;3.30;0.90;;;;;;;;;;4982960;28;20236;-66
2021/09/30 09:42:42;;;;;;;0.95;0.45;;;;;;;;;;4982026;28;20101;-66
2021/09/30 09:45:16;;;;;;;4.05;0.82;;;;;;;;;;4985588;28;20046;-66
2021/09/30 09:47:44;;;;;;;1.77;0.70;;;;;;;;;;4981764;28;20046;-66
2021/09/30 09:50:16;;;;;;;1.98;0.70;;;;;;;;;;4983106;28;20461;-66
2021/09/30 09:52:45;;;;;;;4.07;0.82;;;;;;;;;;4980314;28;20046;-66
2021/09/30 09:55:28;;;;;;;1.52;0.60;;;;;;;;;;4981322;28;20077;-65
2021/09/30 09:57:59;;;;;;;6.70;1.33;;;;;;;;;;4980576;28;20559;-66
2021/09/30 10:00:26;;;;;;;2.33;0.50;;;;;;;;;;4982289;28;20055;-66
2021/09/30 10:02:53;;;;;;;1.75;0.60;;;;;;;;;;4981075;28;20461;-66
2021/09/30 10:05:20;;;;;;;2.08;0.57;;;;;;;;;;4979535;28;20051;-66
2021/09/30 10:07:47;;;;;;;4.70;0.45;;;;;;;;;;4985373;28;20050;-66
2021/09/30 10:10:17;;;;;;;1.77;0.40;;;;;;;;;;4976197;28;20050;-66
2021/09/30 10:12:44;;;;;;;1.70;0.47;;;;;;;;;;4979396;28;20050;-66
2021/09/30 10:15:13;;;;;;;1.25;0.50;;;;;;;;;;4976334;28;20458;-66
2021/09/30 10:17:40;;;;;;;0.70;0.30;;;;;;;;;;4978157;28;20441;-66
2021/09/30 10:20:07;;;;;;;1.40;0.50;;;;;;;;;;4979799;28;20457;-66
2021/09/30 10:22:34;;;;;;;2.70;0.60;;;;;;;;;;4978951;28;20054;-65
2021/09/30 10:25:00;;;;;;;3.97;0.40;;;;;;;;;;4978968;28;20058;-65
2021/09/30 10:27:28;;;;;;;3.40;0.70;;;;;;;;;;4984047;28;20318;-70
2021/09/30 10:29:55;;;;;;;4.28;0.50;;;;;;;;;;4979664;28;20042;-69
2021/09/30 10:32:23;;;;;;;2.50;0.60;;;;;;;;;;4982513;28;20580;-65
2021/09/30 10:34:59;;;;;;;2.72;0.50;;;;;;;;;;4980476;28;20050;-64
2021/09/30 10:37:35;;;;;;;2.47;0.60;;;;;;;;;;4980913;28;20062;-64
2021/09/30 10:40:19;;;;;;;0.88;0.30;;;;;;;;;;4981855;28;20079;-64
2021/09/30 10:42:55;;;;;;;4.57;1.73;;;;;;;;;;4982586;28;20190;-64
2021/09/30 10:45:36;;;;;;;1.52;1.00;;;;;;;;;;4979897;28;20058;-65
2021/09/30 10:48:07;;;;;;;2.25;0.40;;;;;;;;;;4978945;28;20058;-64
2021/09/30 10:50:59;;;;;;;2.53;0.65;;;;;;;;;;4983847;28;20650;-70
2021/09/30 10:53:47;;;;;;;3.10;0.68;;;;;;;;;;4981931;28;20492;-72
2021/09/30 10:56:39;;;;;;;2.60;0.43;;;;;;;;;;4982338;28;20434;-74
2021/09/30 10:59:09;;;;;;;1.00;0.50;;;;;;;;;;4982441;28;20047;-76
2021/09/30 11:01:45;;;;;;;1.15;0.30;;;;;;;;;;4981738;28;20078;-73
2021/09/30 11:04:12;;;;;;;1.70;0.60;;;;;;;;;;4982405;28;20043;-73
2021/09/30 11:06:40;;;;;;;3.08;0.57;;;;;;;;;;4979778;28;20054;-72
2021/09/30 11:09:17;;;;;;;2.33;0.40;;;;;;;;;;4977671;28;20042;-70
2021/09/30 11:11:48;;;;;;;1.58;0.40;;;;;;;;;;4982208;28;20055;-73
2021/09/30 11:14:19;;;;;;;2.17;0.50;;;;;;;;;;4982898;28;20050;-70
2021/09/30 11:16:51;;;;;;;2.30;0.40;;;;;;;;;;4982616;28;20054;-68
2021/09/30 11:19:28;;;;;;;1.20;0.38;;;;;;;;;;4979538;28;20047;-72
2021/09/30 11:21:56;;;;;;;1.15;0.43;;;;;;;;;;4981068;28;20050;-73
2021/09/30 11:24:26;;;;;;;1.05;0.30;;;;;;;;;;4964567;28;20481;-72
2021/09/30 11:26:53;;;;;;;3.15;0.40;;;;;;;;;;4982247;28;20547;-72
2021/09/30 11:29:19;;;;;;;3.20;0.60;;;;;;;;;;4984397;28;20058;-69
2021/09/30 11:31:47;;;;;;;3.78;0.77;;;;;;;;;;4984578;28;20058;-72
2021/09/30 11:34:18;;;;;;;1.13;0.50;;;;;;;;;;4978913;28;20082;-70
2021/09/30 11:36:45;;;;;;;5.22;0.80;;;;;;;;;;4982723;28;20093;-72
2021/09/30 11:39:12;;;;;;;1.10;0.40;;;;;;;;;;4979531;28;20046;-72
2021/09/30 11:41:53;;;;;;;2.38;0.60;;;;;;;;;;4981642;28;20051;-69
2021/09/30 11:44:20;;;;;;;4.05;0.70;;;;;;;;;;4979068;28;21198;-68
2021/09/30 11:46:55;;;;;;;4.93;1.38;;;;;;;;;;4981313;28;20501;-69
2021/09/30 11:49:22;;;;;;;3.15;0.50;;;;;;;;;;4982587;28;20116;-68
2021/09/30 11:51:50;;;;;;;2.38;0.50;;;;;;;;;;4979478;28;20506;-67
2021/09/30 11:54:18;;;;;;;2.22;0.63;;;;;;;;;;4981442;28;20046;-70
2021/09/30 11:56:52;;;;;;;1.48;0.50;;;;;;;;;;4980455;28;20054;-69
2021/09/30 11:59:22;;;;;;;2.22;0.43;;;;;;;;;;4982149;28;20497;-69
2021/09/30 12:01:51;;;;;;;3.00;0.70;;;;;;;;;;4979322;28;20125;-70
2021/09/30 12:04:31;;;;;;;2.50;0.52;;;;;;;;;;4977604;28;20054;-68
2021/09/30 12:06:58;;;;;;;1.55;0.35;;;;;;;;;;4980154;28;20129;-69
2021/09/30 12:09:25;;;;;;;2.10;0.20;;;;;;;;;;4978297;28;20047;-69
2021/09/30 12:11:58;;;;;;;3.20;0.45;;;;;;;;;;4979047;28;20097;-70
2021/09/30 12:14:37;;;;;;;2.22;0.65;;;;;;;;;;4979676;28;20054;-69
2021/09/30 12:17:06;;;;;;;0.40;0.20;;;;;;;;;;4978027;28;20469;-70
2021/09/30 12:19:37;;;;;;;2.20;0.60;;;;;;;;;;4980982;28;20051;-69
2021/09/30 12:22:43;;;;;;;4.13;0.50;;;;;;;;;;4978784;28;20050;-68
2021/09/30 12:25:39;;;;;;;11.35;4.90;;;;;;;;;;4982477;28;20055;-67
2021/09/30 12:28:05;;;;;;;2.92;0.65;;;;;;;;;;4979670;28;20094;-68
2021/09/30 12:30:37;;;;;;;4.82;1.25;;;;;;;;;;4979740;28;20043;-68
2021/09/30 12:33:04;;;;;;;2.08;0.77;;;;;;;;;;4979463;28;20042;-69
2021/09/30 12:35:33;;;;;;;0.88;0.32;;;;;;;;;;4983232;28;20112;-67
2021/09/30 12:38:02;;;;;;;2.35;0.40;;;;;;;;;;4979733;28;20395;-71
2021/09/30 12:40:34;;;;;;;1.52;0.60;;;;;;;;;;4979680;28;20053;-69
2021/09/30 12:43:05;;;;;;;1.17;0.38;;;;;;;;;;4977191;28;20043;-69
2021/09/30 12:45:39;;;;;;;0.82;0.30;;;;;;;;;;4980108;28;20109;-68
2021/09/30 12:48:15;;;;;;;0.50;0.20;;;;;;;;;;4979698;28;20145;-70
2021/09/30 12:50:48;;;;;;;0.90;0.40;;;;;;;;;;4978745;28;20450;-69
2021/09/30 12:53:17;;;;;;;0.52;0.20;;;;;;;;;;4985851;28;20046;-67
2021/09/30 12:55:44;;;;;;;3.92;0.43;;;;;;;;;;4983801;28;20100;-65
2021/09/30 12:58:40;;;;;;;0.68;0.20;;;;;;;;;;4984153;28;20050;-67
2021/09/30 13:01:26;;;;;;;2.05;0.60;;;;;;;;;;4983049;28;20050;-66
2021/09/30 13:04:10;;;;;;;2.65;0.38;;;;;;;;;;4980365;28;20081;-64
2021/09/30 13:06:39;;;;;;;0.88;0.40;;;;;;;;;;4984937;28;20057;-65
2021/09/30 13:09:19;;;;;;;3.50;0.60;;;;;;;;;;4985759;28;20502;-64
2021/09/30 13:11:57;;;;;;;2.80;0.80;;;;;;;;;;4982985;28;20452;-64
2021/09/30 13:14:53;;;;;;;1.10;0.47;;;;;;;;;;4980894;28;20051;-66
2021/09/30 13:17:20;;;;;;;5.75;0.60;;;;;;;;;;4983442;28;20575;-66
2021/09/30 13:19:54;;;;;;;1.23;0.20;;;;;;;;;;4983002;28;20067;-64
2021/09/30 13:22:34;;;;;;;0.40;0.30;;;;;;;;;;4984083;28;20054;-64
2021/09/30 13:25:11;;;;;;;1.25;0.50;;;;;;;;;;4981831;28;20129;-64
2021/09/30 13:27:40;;;;;;;1.67;0.40;;;;;;;;;;4984513;28;20051;-70
2021/09/30 13:30:09;;;;;;;2.20;0.50;;;;;;;;;;4982064;28;20046;-74
2021/09/30 13:32:36;;;;;;;1.15;0.40;;;;;;;;;;4981735;28;20078;-73
2021/09/30 13:35:03;;;;;;;2.08;0.50;;;;;;;;;;4985345;28;20058;-70
2021/09/30 13:37:30;;;;;;;1.27;0.60;;;;;;;;;;4982964;28;20076;-67
2021/09/30 13:39:58;;;;;;;1.25;0.55;;;;;;;;;;4987587;28;20093;-69
2021/09/30 13:42:30;;;;;;;1.48;0.35;;;;;;;;;;4986428;28;20058;-69
2021/09/30 13:44:57;;;;;;;1.42;0.50;;;;;;;;;;4982832;28;20050;-72
2021/09/30 13:47:27;;;;;;;2.50;0.63;;;;;;;;;;4988324;28;20490;-68
2021/09/30 13:49:54;;;;;;;1.55;0.80;;;;;;;;;;4985425;28;20461;-68
2021/09/30 13:52:22;;;;;;;1.20;0.50;;;;;;;;;;4981225;28;20053;-71
2021/09/30 13:54:49;;;;;;;1.13;0.30;;;;;;;;;;4981443;28;20050;-64
2021/09/30 13:57:16;;;;;;;3.00;0.40;;;;;;;;;;4981118;28;20051;-67
2021/09/30 13:59:43;;;;;;;2.17;0.60;;;;;;;;;;4982104;28;20061;-68
2021/09/30 14:02:29;;;;;;;2.80;0.40;;;;;;;;;;4984859;28;20081;-70
2021/09/30 14:04:56;;;;;;;1.27;0.30;;;;;;;;;;4986112;28;20572;-69
2021/09/30 14:07:23;;;;;;;0.95;0.45;;;;;;;;;;4980009;28;20058;-71
2021/09/30 14:09:49;;;;;;;2.53;0.70;;;;;;;;;;4986316;28;20105;-69
2021/09/30 14:12:16;;;;;;;3.15;1.77;;;;;;;;;;4985985;28;20132;-68
2021/09/30 14:14:43;;;;;;;1.10;0.52;;;;;;;;;;4985179;28;20490;-69
2021/09/30 14:17:09;;;;;;;0.65;0.50;;;;;;;;;;4986805;28;20057;-68
2021/09/30 14:19:37;;;;;;;1.65;0.35;;;;;;;;;;4978957;28;20057;-70
2021/09/30 14:22:04;;;;;;;1.88;0.82;;;;;;;;;;4980737;28;20050;-70
2021/09/30 14:24:31;;;;;;;2.30;1.15;;;;;;;;;;4981701;28;20105;-71
2021/09/30 14:26:59;;;;;;;1.00;0.35;;;;;;;;;;4979583;28;20043;-66
2021/09/30 14:29:26;;;;;;;1.20;0.50;;;;;;;;;;4983077;28;20062;-66
2021/09/30 14:31:53;;;;;;;6.40;0.50;;;;;;;;;;4980742;28;20038;-63
2021/09/30 14:34:21;;;;;;;1.90;0.77;;;;;;;;;;4981415;28;20544;-64
2021/09/30 14:36:47;;;;;;;1.60;0.50;;;;;;;;;;4980866;28;20050;-63
2021/09/30 14:39:14;;;;;;;1.65;0.47;;;;;;;;;;4979066;28;20055;-63
2021/09/30 14:41:41;;;;;;;1.30;0.40;;;;;;;;;;4982116;28;20153;-67
2021/09/30 14:44:09;;;;;;;1.55;0.50;;;;;;;;;;4979541;28;20077;-71
2021/09/30 14:46:36;;;;;;;0.60;0.43;;;;;;;;;;4980751;28;20058;-72
2021/09/30 14:49:03;;;;;;;1.65;0.47;;;;;;;;;;4979106;28;20047;-72
2021/09/30 14:51:30;;;;;;;2.22;0.50;;;;;;;;;;4981923;28;20055;-75
2021/09/30 14:54:02;;;;;;;1.30;0.47;;;;;;;;;;4982739;28;20046;-71
2021/09/30 14:56:34;;;;;;;2.35;0.50;;;;;;;;;;4965927;28;20050;-63
2021/09/30 14:59:03;;;;;;;1.10;0.35;;;;;;;;;;4987372;28;20057;-62
2021/09/30 15:01:30;;;;;;;2.80;0.45;;;;;;;;;;4987274;28;20050;-62
2021/09/30 15:03:57;;;;;;;1.75;0.40;;;;;;;;;;4987252;28;20050;-66
2021/09/30 15:06:32;;;;;;;1.33;0.30;;;;;;;;;;4985801;28;20054;-64
2021/09/30 15:09:00;;;;;;;1.35;0.50;;;;;;;;;;4988042;28;20473;-65
2021/09/30 15:11:26;;;;;;;1.17;0.45;;;;;;;;;;4986120;28;20058;-65
2021/09/30 15:13:53;;;;;;;2.83;0.38;;;;;;;;;;4985607;28;20101;-65
2021/09/30 15:16:21;;;;;;;2.15;0.50;;;;;;;;;;4988707;28;20536;-65
2021/09/30 15:21:24;;;;;;;1.05;0.40;;;;;;;;;;4987265;28;20255;-65
2021/09/30 15:23:58;;;;;;;0.65;0.32;;;;;;;;;;4985624;28;20581;-65
2021/09/30 15:26:25;;;;;;;2.80;0.65;;;;;;;;;;4984092;28;20121;-65
2021/09/30 15:28:53;;;;;;;0.75;0.30;;;;;;;;;;4986690;28;20057;-65
2021/09/30 15:31:22;;;;;;;1.55;0.82;;;;;;;;;;4985182;28;20085;-65
2021/09/30 15:33:49;;;;;;;1.17;0.40;;;;;;;;;;4987966;28;20046;-65
2021/09/30 15:36:17;;;;;;;2.70;0.63;;;;;;;;;;4988423;28;20544;-65
2021/09/30 15:38:44;;;;;;;3.42;0.93;;;;;;;;;;4987082;28;20132;-65
2021/09/30 15:41:11;;;;;;;1.10;0.43;;;;;;;;;;4986243;28;20097;-65
2021/09/30 15:43:46;;;;;;;0.85;0.50;;;;;;;;;;4987909;28;20100;-65
2021/09/30 15:46:13;;;;;;;2.25;0.52;;;;;;;;;;4987927;28;20048;-65
2021/09/30 15:48:40;;;;;;;2.22;0.82;;;;;;;;;;4988143;28;20121;-64
2021/09/30 15:51:08;;;;;;;2.67;0.43;;;;;;;;;;4986331;28;20046;-65
2021/09/30 15:53:35;;;;;;;1.30;0.40;;;;;;;;;;4987783;28;20076;-65
2021/09/30 15:56:05;;;;;;;2.28;0.50;;;;;;;;;;4987472;28;20046;-65
2021/09/30 15:58:32;;;;;;;1.38;0.60;;;;;;;;;;4987823;28;20104;-65
2021/09/30 16:01:00;;;;;;;2.17;0.60;;;;;;;;;;4988172;28;20498;-65
2021/09/30 16:03:27;;;;;;;3.25;0.40;;;;;;;;;;4986306;28;20461;-65
2021/09/30 16:05:54;;;;;;;1.52;0.40;;;;;;;;;;4987821;28;20589;-65
2021/09/30 16:08:25;;;;;;;3.87;1.00;;;;;;;;;;4985944;28;20125;-65
2021/09/30 16:10:52;;;;;;;2.40;0.80;;;;;;;;;;4986350;28;20320;-65
2021/09/30 16:13:19;;;;;;;3.97;0.70;;;;;;;;;;4985182;28;20058;-65
2021/09/30 16:15:46;;;;;;;1.85;0.45;;;;;;;;;;4988007;28;20572;-65
2021/09/30 16:18:12;;;;;;;2.45;0.50;;;;;;;;;;4986833;28;20110;-65
2021/09/30 16:20:39;;;;;;;3.75;0.60;;;;;;;;;;4987210;28;20189;-65
2021/09/30 16:23:07;;;;;;;3.47;0.80;;;;;;;;;;4988455;28;20117;-66
2021/09/30 16:25:34;;;;;;;3.30;0.50;;;;;;;;;;4987827;28;20046;-66
2021/09/30 16:28:01;;;;;;;2.15;0.60;;;;;;;;;;4991054;28;20050;-65
2021/09/30 16:30:28;;;;;;;1.75;0.40;;;;;;;;;;4992488;28;20406;-65
2021/09/30 16:32:55;;;;;;;1.77;0.40;;;;;;;;;;4993010;28;20502;-65
2021/09/30 16:35:22;;;;;;;1.92;0.40;;;;;;;;;;4990519;28;20050;-65
2021/09/30 16:37:51;;;;;;;3.15;0.60;;;;;;;;;;4991814;28;20101;-65
2021/09/30 16:40:19;;;;;;;1.80;1.15;;;;;;;;;;4991009;28;20444;-65
2021/09/30 16:42:48;;;;;;;5.82;1.20;;;;;;;;;;4992307;28;20515;-65
2021/09/30 16:45:14;;;;;;;2.35;1.50;;;;;;;;;;4990870;28;20054;-65
2021/09/30 16:47:42;;;;;;;5.50;1.88;;;;;;;;;;4990977;28;20054;-66
2021/09/30 16:50:10;;;;;;;2.90;1.40;;;;;;;;;;4989559;28;20054;-65
2021/09/30 16:52:37;;;;;;;4.45;1.60;;;;;;;;;;4992140;28;20046;-65
2021/09/30 16:55:06;;;;;;;4.47;1.40;;;;;;;;;;4992119;28;20050;-65
2021/09/30 16:57:33;;;;;;;2.17;1.20;;;;;;;;;;4989909;28;20046;-65
2021/09/30 17:00:00;;;;;;;1.98;0.98;;;;;;;;;;4990988;28;20050;-65
2021/09/30 17:02:27;;;;;;;4.18;1.00;;;;;;;;;;4991645;28;20053;-64
2021/09/30 17:04:54;;;;;;;5.70;1.48;;;;;;;;;;4991182;28;20058;-64
2021/09/30 17:07:21;;;;;;;2.60;1.10;;;;;;;;;;4990339;28;20060;-65
2021/09/30 17:09:48;;;;;;;4.13;1.10;;;;;;;;;;4993702;28;20476;-66
2021/09/30 17:12:18;;;;;;;1.35;0.68;;;;;;;;;;4993481;28;20046;-65
2021/09/30 17:14:44;;;;;;;3.97;1.25;;;;;;;;;;4994780;28;20461;-65
2021/09/30 17:17:11;;;;;;;2.05;0.60;;;;;;;;;;4994595;28;20097;-65
2021/09/30 17:19:38;;;;;;;2.60;0.80;;;;;;;;;;4994683;28;20096;-65
2021/09/30 17:22:06;;;;;;;6.53;0.80;;;;;;;;;;4994080;28;20125;-65
2021/09/30 17:24:34;;;;;;;3.50;0.73;;;;;;;;;;4994600;28;20100;-64
2021/09/30 17:27:01;;;;;;;2.35;0.82;;;;;;;;;;4994159;28;20113;-66
2021/09/30 17:29:29;;;;;;;1.60;0.70;;;;;;;;;;4992042;28;20104;-66
2021/09/30 17:31:57;;;;;;;0.82;0.70;;;;;;;;;;4994136;28;20112;-65
2021/09/30 17:34:24;;;;;;;3.40;0.90;;;;;;;;;;4994371;28;20129;-65
2021/09/30 17:36:51;;;;;;;1.15;0.60;;;;;;;;;;4993953;28;20046;-64
2021/09/30 17:39:18;;;;;;;7.38;1.00;;;;;;;;;;4993998;28;20101;-65
2021/09/30 17:41:45;;;;;;;2.92;1.67;;;;;;;;;;4994137;28;20096;-65
2021/09/30 17:44:12;;;;;;;1.20;0.70;;;;;;;;;;4994411;28;20395;-66
2021/09/30 17:46:39;;;;;;;3.03;0.73;;;;;;;;;;4993964;28;20081;-65
2021/09/30 17:49:06;;;;;;;3.78;0.90;;;;;;;;;;4993965;28;20509;-65
2021/09/30 17:51:33;;;;;;;4.03;1.00;;;;;;;;;;4993909;28;20101;-65
2021/09/30 17:54:00;;;;;;;4.38;1.05;;;;;;;;;;4993733;28;20061;-65